sensor_id;sensor_type;location;lat;lon;timestamp;pressure;altitude;pressure_sealevel;temperature;humidity
78800;BME280;68148;55.328;86.106;2023-02-28T00:01:04;101026.50;;;-5.69;54.41
78800;BME280;68148;55.328;86.106;2023-02-28T00:03:33;101013.63;;;-5.69;54.73
78800;BME280;68148;55.328;86.106;2023-02-28T00:05:59;101011.16;;;-5.72;54.58
78800;BME280;68148;55.328;86.106;2023-02-28T00:08:24;101012.09;;;-5.74;55.18
78800;BME280;68148;55.328;86.106;2023-02-28T00:10:51;101007.75;;;-5.72;54.91
78800;BME280;68148;55.328;86.106;2023-02-28T00:13:19;100988.00;;;-5.72;54.97
78800;BME280;68148;55.328;86.106;2023-02-28T00:15:44;101001.78;;;-5.73;55.44
78800;BME280;68148;55.328;86.106;2023-02-28T00:18:13;101002.63;;;-5.74;55.24
78800;BME280;68148;55.328;86.106;2023-02-28T00:20:39;100989.75;;;-5.72;55.24
78800;BME280;68148;55.328;86.106;2023-02-28T00:23:05;100985.50;;;-5.73;55.11
78800;BME280;68148;55.328;86.106;2023-02-28T00:25:33;100976.00;;;-5.71;55.15
78800;BME280;68148;55.328;86.106;2023-02-28T00:27:59;100977.56;;;-5.67;54.47
78800;BME280;68148;55.328;86.106;2023-02-28T00:30:29;100974.09;;;-5.66;54.61
78800;BME280;68148;55.328;86.106;2023-02-28T00:33:02;100962.06;;;-5.64;54.12
78800;BME280;68148;55.328;86.106;2023-02-28T00:35:29;100963.41;;;-5.54;54.41
78800;BME280;68148;55.328;86.106;2023-02-28T00:37:56;100954.91;;;-5.56;54.47
78800;BME280;68148;55.328;86.106;2023-02-28T00:40:22;100945.47;;;-5.56;54.35
78800;BME280;68148;55.328;86.106;2023-02-28T00:42:52;100953.09;;;-5.54;54.49
78800;BME280;68148;55.328;86.106;2023-02-28T00:45:20;100943.63;;;-5.52;54.97
78800;BME280;68148;55.328;86.106;2023-02-28T00:47:46;100942.63;;;-5.48;54.28
78800;BME280;68148;55.328;86.106;2023-02-28T00:50:13;100943.56;;;-5.50;53.97
78800;BME280;68148;55.328;86.106;2023-02-28T00:52:41;100934.09;;;-5.50;54.05
78800;BME280;68148;55.328;86.106;2023-02-28T00:55:09;100932.38;;;-5.49;54.08
78800;BME280;68148;55.328;86.106;2023-02-28T00:57:36;100930.28;;;-5.40;55.74
78800;BME280;68148;55.328;86.106;2023-02-28T01:00:03;100918.81;;;-5.31;55.11
78800;BME280;68148;55.328;86.106;2023-02-28T01:02:30;100923.94;;;-5.30;53.80
78800;BME280;68148;55.328;86.106;2023-02-28T01:04:59;100918.28;;;-5.16;59.25
78800;BME280;68148;55.328;86.106;2023-02-28T01:07:26;100911.00;;;-5.28;53.07
78800;BME280;68148;55.328;86.106;2023-02-28T01:09:52;100913.69;;;-5.31;53.16
78800;BME280;68148;55.328;86.106;2023-02-28T01:12:20;100923.94;;;-5.30;53.55
78800;BME280;68148;55.328;86.106;2023-02-28T01:14:46;100909.28;;;-5.28;53.71
78800;BME280;68148;55.328;86.106;2023-02-28T01:17:15;100922.31;;;-5.32;52.65
78800;BME280;68148;55.328;86.106;2023-02-28T01:19:42;100919.69;;;-5.31;52.72
78800;BME280;68148;55.328;86.106;2023-02-28T01:22:09;100918.81;;;-5.31;52.09
78800;BME280;68148;55.328;86.106;2023-02-28T01:24:35;100907.69;;;-5.32;51.86
78800;BME280;68148;55.328;86.106;2023-02-28T01:27:01;100903.28;;;-5.28;51.32
78800;BME280;68148;55.328;86.106;2023-02-28T01:29:27;100905.66;;;-5.22;51.26
78800;BME280;68148;55.328;86.106;2023-02-28T01:31:53;100890.06;;;-5.19;51.34
78800;BME280;68148;55.328;86.106;2023-02-28T01:34:19;100882.25;;;-5.16;51.30
78800;BME280;68148;55.328;86.106;2023-02-28T01:36:47;100886.31;;;-5.10;51.04
78800;BME280;68148;55.328;86.106;2023-02-28T01:39:13;100877.53;;;-5.05;50.80
78800;BME280;68148;55.328;86.106;2023-02-28T01:41:40;100874.19;;;-5.07;50.67
78800;BME280;68148;55.328;86.106;2023-02-28T01:44:53;100878.38;;;-5.04;50.56
78800;BME280;68148;55.328;86.106;2023-02-28T01:46:55;100868.84;;;-5.02;50.33
78800;BME280;68148;55.328;86.106;2023-02-28T01:49:24;100857.59;;;-4.99;50.11
78800;BME280;68148;55.328;86.106;2023-02-28T01:51:53;100853.28;;;-4.99;49.75
78800;BME280;68148;55.328;86.106;2023-02-28T01:54:24;100845.31;;;-4.93;49.85
78800;BME280;68148;55.328;86.106;2023-02-28T01:57:05;100848.56;;;-4.88;49.69
78800;BME280;68148;55.328;86.106;2023-02-28T01:59:38;100846.66;;;-4.83;49.67
78800;BME280;68148;55.328;86.106;2023-02-28T02:02:07;100835.44;;;-4.82;49.22
78800;BME280;68148;55.328;86.106;2023-02-28T02:04:44;100842.06;;;-4.76;49.93
78800;BME280;68148;55.328;86.106;2023-02-28T02:07:13;100838.53;;;-4.73;49.42
78800;BME280;68148;55.328;86.106;2023-02-28T02:09:39;100831.34;;;-4.65;49.03
78800;BME280;68148;55.328;86.106;2023-02-28T02:18:07;100828.47;;;-4.58;47.93
78800;BME280;68148;55.328;86.106;2023-02-28T02:20:46;100822.28;;;-4.54;47.92
78800;BME280;68148;55.328;86.106;2023-02-28T02:23:47;100826.03;;;-4.40;48.68
78800;BME280;68148;55.328;86.106;2023-02-28T02:40:16;100816.34;;;-4.15;47.75
78800;BME280;68148;55.328;86.106;2023-02-28T02:43:16;100808.25;;;-4.07;46.94
78800;BME280;68148;55.328;86.106;2023-02-28T02:45:59;100801.94;;;-4.00;46.88
78800;BME280;68148;55.328;86.106;2023-02-28T02:48:33;100799.00;;;-4.11;46.57
78800;BME280;68148;55.328;86.106;2023-02-28T02:51:04;100793.78;;;-4.10;46.81
78800;BME280;68148;55.328;86.106;2023-02-28T02:53:34;100786.97;;;-4.11;46.04
78800;BME280;68148;55.328;86.106;2023-02-28T02:56:07;100779.28;;;-4.12;46.56
78800;BME280;68148;55.328;86.106;2023-02-28T02:58:37;100782.22;;;-4.01;46.64
78800;BME280;68148;55.328;86.106;2023-02-28T03:01:04;100770.53;;;-3.89;46.21
78800;BME280;68148;55.328;86.106;2023-02-28T03:03:32;100766.06;;;-3.86;46.14
78800;BME280;68148;55.328;86.106;2023-02-28T03:06:00;100763.84;;;-3.74;45.18
78800;BME280;68148;55.328;86.106;2023-02-28T03:08:29;100756.91;;;-3.72;45.41
78800;BME280;68148;55.328;86.106;2023-02-28T03:11:03;100748.94;;;-3.68;45.03
78800;BME280;68148;55.328;86.106;2023-02-28T03:16:32;100737.06;;;-3.53;45.11
78800;BME280;68148;55.328;86.106;2023-02-28T03:21:56;100729.94;;;-3.48;44.35
78800;BME280;68148;55.328;86.106;2023-02-28T03:27:07;100738.28;;;-3.43;43.92
78800;BME280;68148;55.328;86.106;2023-02-28T03:29:40;100742.28;;;-3.18;43.09
78800;BME280;68148;55.328;86.106;2023-02-28T03:32:24;100745.91;;;-3.22;43.12
78800;BME280;68148;55.328;86.106;2023-02-28T03:35:34;100743.81;;;-3.14;43.25
78800;BME280;68148;55.328;86.106;2023-02-28T03:38:13;100734.09;;;-3.09;41.92
78800;BME280;68148;55.328;86.106;2023-02-28T03:40:48;100722.00;;;-3.09;42.32
78800;BME280;68148;55.328;86.106;2023-02-28T03:43:18;100727.41;;;-2.96;41.92
78800;BME280;68148;55.328;86.106;2023-02-28T03:45:46;100727.00;;;-2.87;41.99
78800;BME280;68148;55.328;86.106;2023-02-28T03:48:25;100729.38;;;-2.66;41.87
78800;BME280;68148;55.328;86.106;2023-02-28T03:50:57;100724.50;;;-2.55;42.33
78800;BME280;68148;55.328;86.106;2023-02-28T03:56:01;100725.25;;;-2.53;42.35
78800;BME280;68148;55.328;86.106;2023-02-28T03:58:37;100725.56;;;-2.42;41.25
78800;BME280;68148;55.328;86.106;2023-02-28T04:01:15;100723.13;;;-2.45;40.75
78800;BME280;68148;55.328;86.106;2023-02-28T04:03:43;100720.38;;;-2.42;41.28
78800;BME280;68148;55.328;86.106;2023-02-28T04:06:15;100708.16;;;-2.38;40.66
78800;BME280;68148;55.328;86.106;2023-02-28T04:08:43;100706.69;;;-2.27;40.99
78800;BME280;68148;55.328;86.106;2023-02-28T04:11:27;100710.41;;;-2.32;40.02
78800;BME280;68148;55.328;86.106;2023-02-28T04:13:56;100694.63;;;-2.28;40.94
78800;BME280;68148;55.328;86.106;2023-02-28T04:16:22;100699.34;;;-2.03;41.38
78800;BME280;68148;55.328;86.106;2023-02-28T04:18:48;100694.44;;;-2.07;40.91
78800;BME280;68148;55.328;86.106;2023-02-28T04:21:16;100685.69;;;-2.05;40.12
78800;BME280;68148;55.328;86.106;2023-02-28T04:23:42;100695.66;;;-2.14;40.27
78800;BME280;68148;55.328;86.106;2023-02-28T04:26:09;100680.34;;;-1.86;40.05
78800;BME280;68148;55.328;86.106;2023-02-28T04:28:41;100696.34;;;-1.95;40.69
78800;BME280;68148;55.328;86.106;2023-02-28T04:31:11;100689.34;;;-1.77;39.71
78800;BME280;68148;55.328;86.106;2023-02-28T04:33:37;100681.00;;;-1.82;38.80
78800;BME280;68148;55.328;86.106;2023-02-28T04:36:11;100672.16;;;-1.78;39.39
78800;BME280;68148;55.328;86.106;2023-02-28T04:38:38;100676.97;;;-1.56;39.27
78800;BME280;68148;55.328;86.106;2023-02-28T04:41:05;100662.78;;;-1.65;39.12
78800;BME280;68148;55.328;86.106;2023-02-28T04:43:31;100673.28;;;-1.52;37.87
78800;BME280;68148;55.328;86.106;2023-02-28T04:46:01;100666.19;;;-1.48;38.54
78800;BME280;68148;55.328;86.106;2023-02-28T04:48:29;100656.84;;;-1.51;38.38
78800;BME280;68148;55.328;86.106;2023-02-28T04:51:04;100651.03;;;-1.70;38.76
78800;BME280;68148;55.328;86.106;2023-02-28T04:53:32;100654.09;;;-1.48;37.68
78800;BME280;68148;55.328;86.106;2023-02-28T04:55:58;100634.84;;;-1.58;38.28
78800;BME280;68148;55.328;86.106;2023-02-28T04:58:24;100638.72;;;-1.51;37.68
78800;BME280;68148;55.328;86.106;2023-02-28T05:01:02;100623.69;;;-1.44;37.47
78800;BME280;68148;55.328;86.106;2023-02-28T05:03:29;100626.41;;;-1.32;37.74
78800;BME280;68148;55.328;86.106;2023-02-28T05:05:59;100622.75;;;-1.43;37.82
78800;BME280;68148;55.328;86.106;2023-02-28T05:08:26;100616.22;;;-1.35;37.42
78800;BME280;68148;55.328;86.106;2023-02-28T05:10:54;100611.66;;;-1.15;37.79
78800;BME280;68148;55.328;86.106;2023-02-28T05:13:20;100609.63;;;-1.10;38.21
78800;BME280;68148;55.328;86.106;2023-02-28T05:15:47;100598.91;;;-0.90;37.59
78800;BME280;68148;55.328;86.106;2023-02-28T05:18:17;100591.50;;;-1.10;37.30
78800;BME280;68148;55.328;86.106;2023-02-28T05:21:04;100592.59;;;-1.00;36.60
78800;BME280;68148;55.328;86.106;2023-02-28T05:23:59;100593.69;;;-1.04;37.41
78800;BME280;68148;55.328;86.106;2023-02-28T05:26:28;100577.72;;;-0.96;37.77
78800;BME280;68148;55.328;86.106;2023-02-28T05:28:56;100580.09;;;-1.08;37.58
78800;BME280;68148;55.328;86.106;2023-02-28T05:31:33;100576.56;;;-1.21;37.42
78800;BME280;68148;55.328;86.106;2023-02-28T05:34:01;100569.84;;;-1.09;36.88
78800;BME280;68148;55.328;86.106;2023-02-28T05:36:38;100574.06;;;-1.22;36.75
78800;BME280;68148;55.328;86.106;2023-02-28T05:39:10;100570.88;;;-0.97;37.08
78800;BME280;68148;55.328;86.106;2023-02-28T05:41:48;100555.88;;;-1.07;36.58
78800;BME280;68148;55.328;86.106;2023-02-28T05:44:16;100558.91;;;-1.00;36.91
78800;BME280;68148;55.328;86.106;2023-02-28T05:46:52;100563.53;;;-0.91;36.83
78800;BME280;68148;55.328;86.106;2023-02-28T05:49:20;100561.78;;;-0.76;36.31
78800;BME280;68148;55.328;86.106;2023-02-28T05:51:46;100560.66;;;-0.86;37.38
78800;BME280;68148;55.328;86.106;2023-02-28T05:54:15;100537.81;;;-0.80;35.88
78800;BME280;68148;55.328;86.106;2023-02-28T05:56:42;100539.31;;;-0.76;35.94
78800;BME280;68148;55.328;86.106;2023-02-28T05:59:12;100529.19;;;-0.66;36.17
78800;BME280;68148;55.328;86.106;2023-02-28T06:01:44;100530.84;;;-0.65;35.87
78800;BME280;68148;55.328;86.106;2023-02-28T06:04:11;100534.28;;;-0.64;36.12
78800;BME280;68148;55.328;86.106;2023-02-28T06:06:37;100524.13;;;-0.67;36.36
78800;BME280;68148;55.328;86.106;2023-02-28T06:09:05;100519.72;;;-0.53;36.10
78800;BME280;68148;55.328;86.106;2023-02-28T06:11:32;100516.81;;;-0.34;35.48
78800;BME280;68148;55.328;86.106;2023-02-28T06:13:59;100501.75;;;-0.41;36.31
78800;BME280;68148;55.328;86.106;2023-02-28T06:16:27;100492.97;;;-0.26;35.65
78800;BME280;68148;55.328;86.106;2023-02-28T06:18:58;100486.66;;;-0.49;35.40
78800;BME280;68148;55.328;86.106;2023-02-28T06:21:25;100479.75;;;-0.36;36.35
78800;BME280;68148;55.328;86.106;2023-02-28T06:23:51;100471.91;;;-0.21;35.89
78800;BME280;68148;55.328;86.106;2023-02-28T06:26:17;100466.31;;;-0.28;35.96
78800;BME280;68148;55.328;86.106;2023-02-28T06:28:45;100459.53;;;-0.31;36.05
78800;BME280;68148;55.328;86.106;2023-02-28T06:31:14;100458.38;;;-0.12;35.62
78800;BME280;68148;55.328;86.106;2023-02-28T06:33:41;100442.06;;;-0.14;35.98
78800;BME280;68148;55.328;86.106;2023-02-28T06:36:08;100443.06;;;-0.30;35.82
78800;BME280;68148;55.328;86.106;2023-02-28T06:38:35;100448.41;;;-0.45;35.61
78800;BME280;68148;55.328;86.106;2023-02-28T06:41:02;100448.63;;;-0.36;35.57
78800;BME280;68148;55.328;86.106;2023-02-28T06:43:30;100450.75;;;-0.28;36.11
78800;BME280;68148;55.328;86.106;2023-02-28T06:45:58;100451.75;;;-0.31;36.10
78800;BME280;68148;55.328;86.106;2023-02-28T06:48:26;100448.25;;;-0.30;35.90
78800;BME280;68148;55.328;86.106;2023-02-28T06:51:03;100450.97;;;-0.18;35.22
78800;BME280;68148;55.328;86.106;2023-02-28T06:53:29;100443.38;;;-0.21;35.90
78800;BME280;68148;55.328;86.106;2023-02-28T06:55:55;100431.50;;;-0.11;36.28
78800;BME280;68148;55.328;86.106;2023-02-28T06:58:21;100428.41;;;-0.04;35.48
78800;BME280;68148;55.328;86.106;2023-02-28T07:00:53;100431.72;;;0.11;35.43
78800;BME280;68148;55.328;86.106;2023-02-28T07:03:19;100428.19;;;-0.01;35.58
78800;BME280;68148;55.328;86.106;2023-02-28T07:05:45;100417.47;;;-0.09;35.33
78800;BME280;68148;55.328;86.106;2023-02-28T07:08:11;100416.34;;;0.08;36.22
78800;BME280;68148;55.328;86.106;2023-02-28T07:10:38;100409.28;;;-0.03;35.07
78800;BME280;68148;55.328;86.106;2023-02-28T07:13:05;100400.78;;;0.08;35.37
78800;BME280;68148;55.328;86.106;2023-02-28T07:15:32;100397.88;;;0.13;35.15
78800;BME280;68148;55.328;86.106;2023-02-28T07:17:58;100389.91;;;0.16;35.58
78800;BME280;68148;55.328;86.106;2023-02-28T07:20:24;100384.81;;;0.14;34.90
78800;BME280;68148;55.328;86.106;2023-02-28T07:22:51;100388.34;;;0.13;35.10
78800;BME280;68148;55.328;86.106;2023-02-28T07:25:17;100368.50;;;0.38;35.18
78800;BME280;68148;55.328;86.106;2023-02-28T07:27:45;100370.19;;;0.39;34.74
78800;BME280;68148;55.328;86.106;2023-02-28T07:30:11;100369.31;;;0.38;34.73
78800;BME280;68148;55.328;86.106;2023-02-28T07:32:53;100359.22;;;0.59;34.82
78800;BME280;68148;55.328;86.106;2023-02-28T07:35:19;100361.63;;;0.49;34.89
78800;BME280;68148;55.328;86.106;2023-02-28T07:37:46;100350.59;;;0.59;35.51
78800;BME280;68148;55.328;86.106;2023-02-28T07:40:13;100352.97;;;0.74;34.80
78800;BME280;68148;55.328;86.106;2023-02-28T07:42:40;100347.63;;;0.52;34.71
78800;BME280;68148;55.328;86.106;2023-02-28T07:45:08;100343.94;;;0.67;34.97
78800;BME280;68148;55.328;86.106;2023-02-28T07:47:34;100342.31;;;0.54;35.05
78800;BME280;68148;55.328;86.106;2023-02-28T07:50:01;100336.59;;;0.48;34.78
78800;BME280;68148;55.328;86.106;2023-02-28T07:52:27;100331.75;;;0.68;35.19
78800;BME280;68148;55.328;86.106;2023-02-28T07:54:53;100319.19;;;0.74;34.80
78800;BME280;68148;55.328;86.106;2023-02-28T07:57:19;100318.25;;;0.75;34.29
78800;BME280;68148;55.328;86.106;2023-02-28T07:59:45;100309.28;;;0.80;34.99
78800;BME280;68148;55.328;86.106;2023-02-28T08:02:15;100296.00;;;0.71;35.18
78800;BME280;68148;55.328;86.106;2023-02-28T08:04:41;100294.28;;;0.59;35.30
78800;BME280;68148;55.328;86.106;2023-02-28T08:07:07;100305.41;;;0.61;35.38
78800;BME280;68148;55.328;86.106;2023-02-28T08:09:33;100307.22;;;0.72;35.36
78800;BME280;68148;55.328;86.106;2023-02-28T08:12:00;100310.16;;;0.67;34.73
78800;BME280;68148;55.328;86.106;2023-02-28T08:14:27;100308.59;;;0.78;35.11
78800;BME280;68148;55.328;86.106;2023-02-28T08:16:53;100288.91;;;0.86;35.05
78800;BME280;68148;55.328;86.106;2023-02-28T08:19:18;100291.88;;;0.93;35.43
78800;BME280;68148;55.328;86.106;2023-02-28T08:21:44;100290.88;;;1.07;34.96
78800;BME280;68148;55.328;86.106;2023-02-28T08:24:10;100288.00;;;0.98;34.92
78800;BME280;68148;55.328;86.106;2023-02-28T08:26:36;100286.56;;;1.18;35.12
78800;BME280;68148;55.328;86.106;2023-02-28T08:29:02;100279.38;;;1.22;35.40
78800;BME280;68148;55.328;86.106;2023-02-28T08:31:31;100282.53;;;1.14;34.62
78800;BME280;68148;55.328;86.106;2023-02-28T08:33:57;100288.06;;;1.10;35.11
78800;BME280;68148;55.328;86.106;2023-02-28T08:36:24;100278.53;;;1.21;35.05
78800;BME280;68148;55.328;86.106;2023-02-28T08:38:56;100285.59;;;1.19;35.36
78800;BME280;68148;55.328;86.106;2023-02-28T08:41:22;100271.97;;;1.29;35.69
78800;BME280;68148;55.328;86.106;2023-02-28T08:43:48;100265.34;;;1.36;35.01
78800;BME280;68148;55.328;86.106;2023-02-28T08:46:14;100264.16;;;1.29;35.20
78800;BME280;68148;55.328;86.106;2023-02-28T08:48:43;100246.78;;;1.40;35.05
78800;BME280;68148;55.328;86.106;2023-02-28T08:51:14;100244.53;;;1.36;35.57
78800;BME280;68148;55.328;86.106;2023-02-28T08:53:40;100244.53;;;1.36;34.97
78800;BME280;68148;55.328;86.106;2023-02-28T08:56:09;100243.53;;;1.14;35.45
78800;BME280;68148;55.328;86.106;2023-02-28T08:58:36;100243.56;;;1.25;35.25
78800;BME280;68148;55.328;86.106;2023-02-28T09:01:10;100234.97;;;1.36;35.67
78800;BME280;68148;55.328;86.106;2023-02-28T09:03:37;100240.06;;;1.38;35.43
78800;BME280;68148;55.328;86.106;2023-02-28T09:06:04;100228.13;;;1.46;34.88
78800;BME280;68148;55.328;86.106;2023-02-28T09:08:31;100222.03;;;1.12;35.31
78800;BME280;68148;55.328;86.106;2023-02-28T09:10:57;100212.97;;;1.29;35.87
78800;BME280;68148;55.328;86.106;2023-02-28T09:13:25;100210.72;;;1.24;35.47
78800;BME280;68148;55.328;86.106;2023-02-28T09:15:52;100204.84;;;1.34;35.64
78800;BME280;68148;55.328;86.106;2023-02-28T09:18:19;100205.88;;;1.31;35.61
78800;BME280;68148;55.328;86.106;2023-02-28T09:20:45;100194.66;;;1.31;35.59
78800;BME280;68148;55.328;86.106;2023-02-28T09:23:12;100192.19;;;1.29;35.75
78800;BME280;68148;55.328;86.106;2023-02-28T09:25:45;100188.38;;;1.22;35.68
78800;BME280;68148;55.328;86.106;2023-02-28T09:28:11;100180.78;;;1.19;35.56
78800;BME280;68148;55.328;86.106;2023-02-28T09:30:38;100173.81;;;1.19;35.66
78800;BME280;68148;55.328;86.106;2023-02-28T09:33:04;100177.16;;;1.21;36.28
78800;BME280;68148;55.328;86.106;2023-02-28T09:35:30;100164.59;;;1.15;36.06
78800;BME280;68148;55.328;86.106;2023-02-28T09:37:58;100173.00;;;1.08;36.71
78800;BME280;68148;55.328;86.106;2023-02-28T09:40:26;100166.03;;;1.19;35.80
78800;BME280;68148;55.328;86.106;2023-02-28T09:42:55;100167.19;;;1.04;36.80
78800;BME280;68148;55.328;86.106;2023-02-28T09:45:40;100156.41;;;0.97;36.82
78800;BME280;68148;55.328;86.106;2023-02-28T09:48:15;100153.56;;;0.89;36.58
78800;BME280;68148;55.328;86.106;2023-02-28T09:50:46;100140.69;;;0.88;36.88
78800;BME280;68148;55.328;86.106;2023-02-28T09:53:31;100153.69;;;0.88;37.51
78800;BME280;68148;55.328;86.106;2023-02-28T09:56:15;100139.25;;;0.84;36.66
78800;BME280;68148;55.328;86.106;2023-02-28T09:58:55;100141.16;;;0.82;37.42
78800;BME280;68148;55.328;86.106;2023-02-28T10:01:37;100128.59;;;0.75;37.26
78800;BME280;68148;55.328;86.106;2023-02-28T10:06:55;100143.03;;;0.80;37.10
78800;BME280;68148;55.328;86.106;2023-02-28T10:09:25;100122.44;;;0.65;37.45
78800;BME280;68148;55.328;86.106;2023-02-28T10:11:54;100126.31;;;0.60;37.31
78800;BME280;68148;55.328;86.106;2023-02-28T10:14:26;100120.06;;;0.62;37.39
78800;BME280;68148;55.328;86.106;2023-02-28T10:17:02;100127.97;;;0.61;37.02
78800;BME280;68148;55.328;86.106;2023-02-28T10:19:47;100119.19;;;0.50;37.64
78800;BME280;68148;55.328;86.106;2023-02-28T10:22:36;100108.09;;;0.48;36.99
78800;BME280;68148;55.328;86.106;2023-02-28T10:25:25;100118.91;;;0.42;37.62
78800;BME280;68148;55.328;86.106;2023-02-28T10:30:33;100095.28;;;0.34;38.43
78800;BME280;68148;55.328;86.106;2023-02-28T10:32:59;100090.72;;;0.38;38.28
78800;BME280;68148;55.328;86.106;2023-02-28T10:35:26;100084.91;;;0.34;37.96
78800;BME280;68148;55.328;86.106;2023-02-28T10:37:57;100084.00;;;0.35;37.93
78800;BME280;68148;55.328;86.106;2023-02-28T10:46:42;100067.81;;;0.32;38.81
78800;BME280;68148;55.328;86.106;2023-02-28T10:48:45;100074.84;;;0.30;38.36
78800;BME280;68148;55.328;86.106;2023-02-28T10:51:16;100075.44;;;0.22;38.43
78800;BME280;68148;55.328;86.106;2023-02-28T10:53:51;100066.56;;;0.13;39.10
78800;BME280;68148;55.328;86.106;2023-02-28T10:56:20;100060.28;;;0.05;39.04
78800;BME280;68148;55.328;86.106;2023-02-28T11:01:58;100059.16;;;-0.04;39.31
78800;BME280;68148;55.328;86.106;2023-02-28T11:06:58;100051.31;;;-0.15;39.72
78800;BME280;68148;55.328;86.106;2023-02-28T11:09:30;100050.88;;;-0.09;39.80
78800;BME280;68148;55.328;86.106;2023-02-28T11:11:59;100038.84;;;-0.10;39.63
78800;BME280;68148;55.328;86.106;2023-02-28T11:14:28;100045.72;;;-0.22;40.60
78800;BME280;68148;55.328;86.106;2023-02-28T11:17:14;100042.03;;;-0.31;40.77
78800;BME280;68148;55.328;86.106;2023-02-28T11:19:46;100035.59;;;-0.25;40.46
78800;BME280;68148;55.328;86.106;2023-02-28T11:22:20;100039.75;;;-0.35;40.54
78800;BME280;68148;55.328;86.106;2023-02-28T11:24:53;100039.47;;;-0.43;40.78
78800;BME280;68148;55.328;86.106;2023-02-28T11:27:44;100034.41;;;-0.45;41.04
78800;BME280;68148;55.328;86.106;2023-02-28T11:30:35;100026.13;;;-0.50;41.46
78800;BME280;68148;55.328;86.106;2023-02-28T11:35:53;100007.25;;;-0.52;40.65
78800;BME280;68148;55.328;86.106;2023-02-28T11:38:22;100008.59;;;-0.46;40.94
78800;BME280;68148;55.328;86.106;2023-02-28T11:41:05;100012.22;;;-0.49;41.26
78800;BME280;68148;55.328;86.106;2023-02-28T11:46:10;100005.19;;;-0.47;40.91
78800;BME280;68148;55.328;86.106;2023-02-28T11:56:50;99994.22;;;-0.51;41.59
78800;BME280;68148;55.328;86.106;2023-02-28T12:08:04;99983.34;;;-0.56;42.03
78800;BME280;68148;55.328;86.106;2023-02-28T12:22:03;99975.16;;;-0.62;42.50
78800;BME280;68148;55.328;86.106;2023-02-28T12:27:29;99964.50;;;-0.70;43.35
78800;BME280;68148;55.328;86.106;2023-02-28T12:30:02;99962.94;;;-0.73;43.47
78800;BME280;68148;55.328;86.106;2023-02-28T12:32:35;99962.94;;;-0.73;43.56
78800;BME280;68148;55.328;86.106;2023-02-28T12:35:27;99964.50;;;-0.70;43.30
78800;BME280;68148;55.328;86.106;2023-02-28T12:38:04;99960.16;;;-0.70;43.48
78800;BME280;68148;55.328;86.106;2023-02-28T12:41:03;99953.44;;;-0.72;43.54
78800;BME280;68148;55.328;86.106;2023-02-28T12:43:33;99944.94;;;-0.74;43.95
78800;BME280;68148;55.328;86.106;2023-02-28T12:46:11;99935.63;;;-0.77;43.70
78800;BME280;68148;55.328;86.106;2023-02-28T12:48:46;99933.34;;;-0.82;43.74
78800;BME280;68148;55.328;86.106;2023-02-28T12:51:13;99922.06;;;-0.81;43.55
78800;BME280;68148;55.328;86.106;2023-02-28T12:54:03;99914.97;;;-0.79;43.46
78800;BME280;68148;55.328;86.106;2023-02-28T12:56:47;99916.75;;;-0.79;43.67
78800;BME280;68148;55.328;86.106;2023-02-28T12:59:50;99899.41;;;-0.90;44.41
78800;BME280;68148;55.328;86.106;2023-02-28T13:11:46;99891.84;;;-0.93;43.55
78800;BME280;68148;55.328;86.106;2023-02-28T13:14:35;99888.41;;;-0.93;43.84
78800;BME280;68148;55.328;86.106;2023-02-28T13:19:57;99880.66;;;-0.93;43.70
78800;BME280;68148;55.328;86.106;2023-02-28T13:22:48;99872.44;;;-0.87;43.30
78800;BME280;68148;55.328;86.106;2023-02-28T13:28:13;99873.25;;;-0.87;42.73
78800;BME280;68148;55.328;86.106;2023-02-28T13:35:47;99858.88;;;-0.91;43.22
78800;BME280;68148;55.328;86.106;2023-02-28T13:38:18;99866.16;;;-0.96;42.85
78800;BME280;68148;55.328;86.106;2023-02-28T13:40:50;99867.09;;;-0.97;43.14
78800;BME280;68148;55.328;86.106;2023-02-28T13:43:17;99856.59;;;-0.95;43.07
78800;BME280;68148;55.328;86.106;2023-02-28T13:46:06;99850.72;;;-0.97;43.04
78800;BME280;68148;55.328;86.106;2023-02-28T13:48:34;99855.41;;;-1.03;43.88
78800;BME280;68148;55.328;86.106;2023-02-28T13:51:37;99847.53;;;-1.01;43.19
78800;BME280;68148;55.328;86.106;2023-02-28T13:54:45;99844.31;;;-1.05;43.03
78800;BME280;68148;55.328;86.106;2023-02-28T13:57:44;99846.84;;;-0.92;42.93
78800;BME280;68148;55.328;86.106;2023-02-28T14:05:45;99823.25;;;-1.00;43.58
78800;BME280;68148;55.328;86.106;2023-02-28T14:08:17;99824.41;;;-1.04;42.97
78800;BME280;68148;55.328;86.106;2023-02-28T14:13:46;99819.63;;;-0.97;42.74
78800;BME280;68148;55.328;86.106;2023-02-28T14:16:51;99816.22;;;-0.98;42.84
78800;BME280;68148;55.328;86.106;2023-02-28T14:25:23;99795.78;;;-0.90;42.28
78800;BME280;68148;55.328;86.106;2023-02-28T14:36:43;99783.38;;;-0.97;42.52
78800;BME280;68148;55.328;86.106;2023-02-28T14:39:26;99776.44;;;-0.97;42.75
78800;BME280;68148;55.328;86.106;2023-02-28T14:45:31;99782.31;;;-0.95;42.46
78800;BME280;68148;55.328;86.106;2023-02-28T14:48:05;99770.03;;;-1.04;43.52
78800;BME280;68148;55.328;86.106;2023-02-28T14:50:37;99761.09;;;-1.00;43.01
78800;BME280;68148;55.328;86.106;2023-02-28T14:53:06;99751.69;;;-1.01;43.06
78800;BME280;68148;55.328;86.106;2023-02-28T14:55:46;99757.22;;;-1.06;43.16
78800;BME280;68148;55.328;86.106;2023-02-28T14:58:33;99742.28;;;-1.02;43.24
78800;BME280;68148;55.328;86.106;2023-02-28T15:01:03;99743.56;;;-0.96;43.20
78800;BME280;68148;55.328;86.106;2023-02-28T15:03:33;99738.78;;;-0.90;42.97
78800;BME280;68148;55.328;86.106;2023-02-28T15:09:29;99728.03;;;-0.96;42.65
78800;BME280;68148;55.328;86.106;2023-02-28T15:11:56;99718.53;;;-0.85;42.67
78800;BME280;68148;55.328;86.106;2023-02-28T15:14:22;99721.56;;;-0.91;42.75
78800;BME280;68148;55.328;86.106;2023-02-28T15:17:13;99714.75;;;-0.92;42.23
78800;BME280;68148;55.328;86.106;2023-02-28T15:19:52;99718.28;;;-0.93;42.59
78800;BME280;68148;55.328;86.106;2023-02-28T15:22:30;99721.81;;;-0.94;42.24